createdAt,value
2019-03-26T00:00:47.335Z,8.80
2019-03-26T00:03:16.583Z,8.80
2019-03-26T00:05:45.923Z,8.90
2019-03-26T00:08:15.117Z,8.90
2019-03-26T00:10:44.380Z,9.00
2019-03-26T00:13:13.658Z,9.00
2019-03-26T00:15:43.837Z,8.90
2019-03-26T00:18:14.170Z,9.00
2019-03-26T00:20:44.425Z,8.90
2019-03-26T00:23:14.653Z,8.80
2019-03-26T00:25:44.857Z,8.80
2019-03-26T00:28:14.109Z,8.80
2019-03-26T00:30:44.279Z,8.80
2019-03-26T00:33:14.469Z,8.80
2019-03-26T00:35:44.665Z,8.80
2019-03-26T00:38:17.495Z,9.00
2019-03-26T00:40:48.644Z,9.00
2019-03-26T00:43:17.932Z,9.00
2019-03-26T00:45:53.128Z,9.00
2019-03-26T00:48:22.405Z,9.00
2019-03-26T00:50:51.658Z,9.00
2019-03-26T00:53:20.903Z,8.90
2019-03-26T00:55:50.159Z,8.90
2019-03-26T00:58:19.357Z,8.80
2019-03-26T01:00:51.163Z,8.80
2019-03-26T01:03:21.183Z,8.90
2019-03-26T01:05:50.451Z,8.80
2019-03-26T01:08:20.647Z,8.80
2019-03-26T01:10:49.891Z,8.80
2019-03-26T01:13:21.077Z,8.80
2019-03-26T01:15:50.319Z,8.90
2019-03-26T01:18:21.229Z,8.90
2019-03-26T01:20:51.712Z,9.00
2019-03-26T01:23:20.935Z,9.00
2019-03-26T01:25:50.273Z,9.00
2019-03-26T01:28:19.529Z,9.00
2019-03-26T01:30:48.724Z,9.10
2019-03-26T01:33:17.969Z,9.00
2019-03-26T01:35:48.160Z,9.10
2019-03-26T01:38:17.396Z,9.10
2019-03-26T01:40:46.670Z,9.10
2019-03-26T01:43:15.926Z,9.00
2019-03-26T01:45:47.134Z,9.00
2019-03-26T01:48:16.421Z,8.80
2019-03-26T01:50:46.646Z,8.90
2019-03-26T01:53:20.342Z,9.00
2019-03-26T01:55:49.458Z,9.00
2019-03-26T01:58:20.708Z,9.00
2019-03-26T02:00:49.974Z,8.90
2019-03-26T02:03:20.152Z,8.90
2019-03-26T02:05:49.401Z,9.00
2019-03-26T02:08:18.755Z,8.90
2019-03-26T02:10:49.009Z,8.90
2019-03-26T02:13:20.971Z,8.70
2019-03-26T02:15:53.204Z,8.70
2019-03-26T02:18:24.417Z,8.70
2019-03-26T02:20:55.602Z,8.60
2019-03-26T02:23:27.537Z,8.50
2019-03-26T02:26:01.328Z,8.50
2019-03-26T02:28:30.557Z,8.50
2019-03-26T02:30:59.886Z,8.60
2019-03-26T02:33:29.199Z,8.60
2019-03-26T02:35:58.504Z,8.60
2019-03-26T02:38:27.762Z,8.60
2019-03-26T02:40:56.988Z,8.50
2019-03-26T02:43:26.287Z,8.40
2019-03-26T02:45:55.614Z,8.30
2019-03-26T02:48:24.944Z,8.30
2019-03-26T02:50:54.605Z,8.40
2019-03-26T02:53:23.857Z,8.60
2019-03-26T02:55:53.127Z,8.50
2019-03-26T02:58:24.478Z,8.40
2019-03-26T03:00:54.655Z,8.50
2019-03-26T03:03:23.955Z,8.50
2019-03-26T03:05:53.277Z,8.40
2019-03-26T03:08:22.524Z,8.60
2019-03-26T03:10:52.685Z,8.50
2019-03-26T03:13:21.957Z,8.50
2019-03-26T03:15:51.256Z,8.50
2019-03-26T03:18:23.414Z,8.50
2019-03-26T03:20:52.667Z,8.60
2019-03-26T03:23:22.876Z,8.60
2019-03-26T03:25:52.193Z,8.50
2019-03-26T03:28:21.458Z,8.40
2019-03-26T03:30:50.782Z,8.60
2019-03-26T03:33:20.005Z,8.60
2019-03-26T03:35:52.650Z,8.50
2019-03-26T03:38:22.149Z,8.70
2019-03-26T03:40:52.386Z,8.60
2019-03-26T03:43:21.655Z,8.60
2019-03-26T03:45:51.107Z,8.70
2019-03-26T03:48:20.527Z,8.60
2019-03-26T03:50:49.769Z,8.60
2019-03-26T03:53:19.054Z,8.60
2019-03-26T03:55:48.356Z,8.60
2019-03-26T03:58:17.638Z,8.60
2019-03-26T04:00:46.883Z,8.80
2019-03-26T04:03:16.138Z,8.80
2019-03-26T04:05:45.440Z,8.70
2019-03-26T04:08:16.027Z,8.70
2019-03-26T04:10:46.302Z,8.80
2019-03-26T04:13:15.626Z,8.70
2019-03-26T04:15:44.890Z,8.70
2019-03-26T04:18:14.140Z,8.70
2019-03-26T04:20:43.318Z,8.60
2019-03-26T04:23:14.480Z,8.60
2019-03-26T04:25:43.729Z,8.60
2019-03-26T04:28:13.094Z,8.70
2019-03-26T04:30:42.378Z,8.90
2019-03-26T04:33:11.590Z,9.00
2019-03-26T04:35:40.909Z,8.60
2019-03-26T04:38:10.168Z,8.60
2019-03-26T04:40:39.484Z,8.40
2019-03-26T04:43:08.730Z,8.30
2019-03-26T04:45:40.020Z,8.10
2019-03-26T04:48:09.253Z,8.10
2019-03-26T04:50:41.233Z,8.00
2019-03-26T04:53:10.456Z,8.00
2019-03-26T04:55:39.727Z,7.90
2019-03-26T04:58:08.996Z,8.00
2019-03-26T05:00:42.467Z,8.00
2019-03-26T05:03:12.715Z,8.00
2019-03-26T05:05:42.948Z,8.20
2019-03-26T05:08:13.221Z,8.10
2019-03-26T05:10:43.645Z,8.00
2019-03-26T05:13:12.937Z,8.30
2019-03-26T05:15:42.290Z,8.20
2019-03-26T05:18:13.527Z,8.20
2019-03-26T05:20:43.167Z,8.20
2019-03-26T05:23:18.110Z,8.10
2019-03-26T05:25:47.335Z,8.00
2019-03-26T05:28:21.709Z,8.00
2019-03-26T05:30:52.625Z,7.90
2019-03-26T05:33:22.280Z,8.00
2019-03-26T05:35:51.896Z,8.10
2019-03-26T05:38:21.417Z,8.00
2019-03-26T05:40:50.651Z,7.80
2019-03-26T05:43:20.955Z,7.70
2019-03-26T05:45:50.244Z,7.80
2019-03-26T05:48:20.460Z,7.80
2019-03-26T05:50:49.738Z,7.70
2019-03-26T05:53:19.074Z,7.80
2019-03-26T05:55:49.652Z,7.80
2019-03-26T05:58:22.073Z,7.90
2019-03-26T06:00:55.126Z,8.00
2019-03-26T06:03:26.706Z,7.90
2019-03-26T06:05:57.753Z,8.00
2019-03-26T06:08:29.042Z,8.10
2019-03-26T06:10:59.336Z,8.00
2019-03-26T06:13:29.697Z,8.10
2019-03-26T06:15:59.089Z,8.20
2019-03-26T06:18:28.392Z,8.00
2019-03-26T06:21:00.985Z,8.10
2019-03-26T06:23:31.178Z,7.90
2019-03-26T06:26:02.939Z,8.20
2019-03-26T06:28:33.214Z,8.10
2019-03-26T06:31:04.269Z,7.80
2019-03-26T06:33:33.505Z,7.90
2019-03-26T06:36:02.964Z,7.70
2019-03-26T06:38:33.202Z,7.60
2019-03-26T06:41:06.831Z,7.60
2019-03-26T06:43:36.741Z,7.50
2019-03-26T06:46:06.044Z,7.70
2019-03-26T06:48:35.322Z,7.90
2019-03-26T06:51:05.906Z,7.90
2019-03-26T06:53:35.177Z,7.80
2019-03-26T06:56:05.281Z,7.90
2019-03-26T06:58:35.492Z,8.00
2019-03-26T07:01:04.922Z,8.10
2019-03-26T07:03:34.250Z,8.10
2019-03-26T07:06:03.540Z,8.10
2019-03-26T07:08:32.989Z,8.10
2019-03-26T07:11:03.365Z,8.20
2019-03-26T07:13:32.600Z,8.30
2019-03-26T07:16:04.773Z,8.50
2019-03-26T07:18:36.137Z,8.40
2019-03-26T07:21:08.060Z,8.50
2019-03-26T07:23:37.361Z,8.40
2019-03-26T07:26:06.792Z,8.30
2019-03-26T07:28:37.126Z,8.30
2019-03-26T07:31:07.255Z,8.30
2019-03-26T07:33:36.591Z,8.40
2019-03-26T07:36:07.880Z,8.40
2019-03-26T07:38:38.614Z,8.60
2019-03-26T07:41:08.905Z,8.50
2019-03-26T07:43:38.319Z,8.40
2019-03-26T07:46:11.345Z,8.50
2019-03-26T07:48:41.548Z,8.60
2019-03-26T07:51:11.804Z,8.70
2019-03-26T07:53:41.212Z,8.80
2019-03-26T07:56:10.510Z,8.80
2019-03-26T07:58:39.757Z,8.90
2019-03-26T08:01:10.238Z,9.00
2019-03-26T08:03:39.613Z,9.10
2019-03-26T08:06:08.864Z,9.10
2019-03-26T08:08:40.686Z,9.10
2019-03-26T08:11:09.997Z,9.10
2019-03-26T08:13:41.001Z,8.90
2019-03-26T08:16:11.144Z,8.80
2019-03-26T08:18:42.420Z,8.80
2019-03-26T08:21:13.596Z,9.00
2019-03-26T08:23:42.905Z,9.10
2019-03-26T08:26:14.376Z,8.90
2019-03-26T08:28:44.711Z,8.90
2019-03-26T08:31:18.114Z,9.00
2019-03-26T08:33:47.324Z,9.00
2019-03-26T08:36:17.534Z,9.20
2019-03-26T08:38:46.831Z,9.50
2019-03-26T08:41:16.089Z,9.50
2019-03-26T08:43:45.366Z,9.60
2019-03-26T08:46:14.634Z,9.60
2019-03-26T08:48:46.210Z,9.50
2019-03-26T08:51:15.517Z,9.60
2019-03-26T08:53:44.757Z,9.70
2019-03-26T08:56:15.024Z,9.70
2019-03-26T08:58:44.280Z,9.80
2019-03-26T09:01:15.058Z,9.80
2019-03-26T09:03:44.317Z,9.70
2019-03-26T09:06:14.589Z,9.80
2019-03-26T09:08:43.837Z,9.80
2019-03-26T09:11:14.051Z,9.80
2019-03-26T09:13:43.308Z,9.70
2019-03-26T09:16:12.477Z,9.70
2019-03-26T09:18:41.880Z,9.70
2019-03-26T09:21:12.313Z,9.50
2019-03-26T09:23:41.572Z,9.60
2019-03-26T09:26:10.843Z,9.60
2019-03-26T09:28:40.089Z,9.70
2019-03-26T09:31:10.340Z,9.90
2019-03-26T09:33:39.565Z,9.90
2019-03-26T09:36:08.751Z,10.00
2019-03-26T09:38:39.336Z,10.10
2019-03-26T09:41:08.857Z,10.10
2019-03-26T09:43:38.139Z,10.20
2019-03-26T09:46:07.451Z,10.00
2019-03-26T09:48:36.709Z,10.10
2019-03-26T09:51:05.988Z,10.20
2019-03-26T09:53:35.323Z,10.30
2019-03-26T09:56:06.369Z,10.40
2019-03-26T09:58:36.925Z,10.40
2019-03-26T10:01:06.561Z,10.70
2019-03-26T10:03:35.900Z,10.90
2019-03-26T10:06:05.173Z,11.40
2019-03-26T10:08:34.516Z,11.60
2019-03-26T10:11:03.802Z,11.50
2019-03-26T10:13:36.245Z,11.60
2019-03-26T10:16:06.588Z,11.70
2019-03-26T10:18:35.839Z,11.60
2019-03-26T10:21:06.184Z,11.50
2019-03-26T10:23:36.354Z,11.50
2019-03-26T10:26:05.625Z,11.70
2019-03-26T10:28:34.969Z,12.00
2019-03-26T10:31:04.209Z,12.20
2019-03-26T10:33:33.437Z,12.40
2019-03-26T10:36:02.684Z,12.20
2019-03-26T10:38:31.945Z,11.90
2019-03-26T10:41:01.212Z,11.70
2019-03-26T10:43:30.467Z,11.70
2019-03-26T10:45:59.756Z,11.70
2019-03-26T10:48:31.798Z,12.10
2019-03-26T10:51:00.954Z,12.00
2019-03-26T10:53:32.254Z,11.50
2019-03-26T10:56:01.533Z,11.60
2019-03-26T10:58:33.478Z,11.50
2019-03-26T11:01:03.750Z,11.20
2019-03-26T11:03:33.052Z,11.40
2019-03-26T11:06:04.245Z,11.70
2019-03-26T11:08:34.572Z,11.90
2019-03-26T11:11:03.844Z,11.80
2019-03-26T11:13:33.341Z,11.70
2019-03-26T11:16:03.720Z,11.60
2019-03-26T11:18:33.133Z,11.40
2019-03-26T11:21:03.316Z,11.20
2019-03-26T11:23:33.880Z,11.40
2019-03-26T11:26:04.723Z,11.70
2019-03-26T11:28:34.020Z,12.00
2019-03-26T11:31:03.276Z,12.40
2019-03-26T11:33:32.543Z,12.40
2019-03-26T11:36:01.789Z,11.90
2019-03-26T11:38:31.030Z,11.90
2019-03-26T11:41:01.224Z,12.10
2019-03-26T11:43:30.564Z,12.80
2019-03-26T11:46:00.891Z,13.50
2019-03-26T11:48:31.160Z,14.30
2019-03-26T11:51:00.414Z,14.90
2019-03-26T11:53:29.690Z,14.10
2019-03-26T11:55:58.956Z,14.10
2019-03-26T11:58:30.908Z,14.00
2019-03-26T12:01:03.710Z,13.20
2019-03-26T12:03:32.285Z,12.70
2019-03-26T12:06:03.093Z,12.50
2019-03-26T12:08:35.886Z,12.20
2019-03-26T12:11:06.573Z,12.00
2019-03-26T12:13:35.872Z,11.90
2019-03-26T12:16:05.128Z,11.90
2019-03-26T12:18:35.420Z,11.90
2019-03-26T12:21:05.974Z,12.20
2019-03-26T12:23:35.322Z,12.20
2019-03-26T12:26:05.649Z,12.10
2019-03-26T12:28:34.897Z,12.10
2019-03-26T12:31:04.237Z,12.20
2019-03-26T12:33:33.582Z,12.20
2019-03-26T12:36:02.923Z,12.10
2019-03-26T12:38:32.179Z,12.00
2019-03-26T12:41:01.461Z,12.10
2019-03-26T12:43:33.410Z,12.10
2019-03-26T12:46:03.875Z,12.20
2019-03-26T12:48:34.433Z,12.20
2019-03-26T12:51:03.811Z,12.30
2019-03-26T12:53:33.080Z,12.50
2019-03-26T12:56:03.677Z,12.70
2019-03-26T12:58:36.379Z,12.60
2019-03-26T13:01:03.923Z,12.60
2019-03-26T13:03:33.969Z,12.50
2019-03-26T13:06:05.385Z,12.20
2019-03-26T13:08:43.929Z,11.90
2019-03-26T13:11:17.123Z,12.00
2019-03-26T13:13:46.439Z,12.20
2019-03-26T13:16:19.365Z,12.20
2019-03-26T13:18:48.024Z,12.10
2019-03-26T13:21:17.186Z,12.80
2019-03-26T13:23:47.398Z,13.70
2019-03-26T13:26:16.905Z,14.80
2019-03-26T13:28:46.213Z,15.20
2019-03-26T13:31:15.578Z,15.20
2019-03-26T13:33:45.827Z,14.50
2019-03-26T13:36:16.199Z,14.00
2019-03-26T13:38:45.486Z,14.20
2019-03-26T13:41:14.757Z,14.10
2019-03-26T13:43:45.220Z,13.80
2019-03-26T13:46:14.482Z,13.60
2019-03-26T13:48:45.806Z,13.70
2019-03-26T13:51:15.137Z,13.60
2019-03-26T13:53:45.319Z,13.70
2019-03-26T13:56:14.653Z,13.60
2019-03-26T13:58:43.898Z,13.70
2019-03-26T14:01:13.213Z,13.70
2019-03-26T14:03:44.595Z,13.60
2019-03-26T14:06:15.812Z,13.30
2019-03-26T14:08:49.402Z,13.20
2019-03-26T14:11:18.780Z,12.90
2019-03-26T14:13:51.327Z,12.90
2019-03-26T14:16:23.278Z,12.90
2019-03-26T14:18:56.473Z,13.00
2019-03-26T14:21:25.747Z,13.10
2019-03-26T14:23:55.094Z,12.90
2019-03-26T14:26:26.019Z,13.00
2019-03-26T14:28:55.334Z,13.10
2019-03-26T14:31:25.614Z,13.20
2019-03-26T14:33:56.603Z,13.20
2019-03-26T14:36:26.003Z,13.10
2019-03-26T14:38:55.282Z,12.90
2019-03-26T14:41:26.657Z,12.90
2019-03-26T14:43:57.112Z,12.80
2019-03-26T14:46:34.489Z,12.80
2019-03-26T14:49:07.130Z,12.60
2019-03-26T14:51:42.292Z,12.80
2019-03-26T14:54:14.071Z,12.90
2019-03-26T14:56:45.276Z,12.60
2019-03-26T14:59:14.596Z,12.50
2019-03-26T15:01:45.829Z,12.30
2019-03-26T15:04:15.105Z,12.30
2019-03-26T15:06:44.473Z,12.40
2019-03-26T15:09:14.781Z,12.70
2019-03-26T15:11:45.050Z,12.60
2019-03-26T15:14:16.336Z,12.60
2019-03-26T15:16:45.626Z,12.50
2019-03-26T15:19:14.879Z,12.50
2019-03-26T15:21:44.177Z,12.40
2019-03-26T15:24:14.973Z,12.50
2019-03-26T15:26:45.233Z,12.60
2019-03-26T15:29:14.530Z,12.80
2019-03-26T15:31:43.804Z,12.80
2019-03-26T15:34:14.095Z,12.80
2019-03-26T15:36:43.381Z,12.80
2019-03-26T15:39:13.907Z,12.90
2019-03-26T15:41:43.243Z,12.80
2019-03-26T15:44:13.949Z,12.60
2019-03-26T15:46:44.437Z,12.60
2019-03-26T15:49:15.345Z,12.60
2019-03-26T15:51:46.537Z,12.70
2019-03-26T15:54:17.176Z,12.60
2019-03-26T15:56:46.457Z,12.60
2019-03-26T15:59:15.701Z,12.80
2019-03-26T16:01:45.038Z,12.90
2019-03-26T16:04:14.304Z,13.10
2019-03-26T16:06:46.370Z,13.30
2019-03-26T16:09:16.422Z,13.50
2019-03-26T16:11:46.718Z,13.50
2019-03-26T16:14:16.976Z,13.20
2019-03-26T16:16:49.547Z,12.90
2019-03-26T16:19:32.139Z,12.70
2019-03-26T16:21:52.356Z,12.60
2019-03-26T16:24:22.676Z,12.50
2019-03-26T16:26:51.958Z,12.60
2019-03-26T16:29:21.284Z,12.50
2019-03-26T16:31:50.537Z,12.20
2019-03-26T16:34:19.913Z,12.30
2019-03-26T16:36:59.561Z,12.10
2019-03-26T16:39:20.152Z,12.10
2019-03-26T16:41:49.742Z,12.10
2019-03-26T16:44:19.086Z,12.00
2019-03-26T16:46:48.329Z,12.00
2019-03-26T16:49:17.602Z,12.00
2019-03-26T16:51:46.942Z,12.10
2019-03-26T16:54:17.199Z,12.10
2019-03-26T16:56:46.441Z,12.10
2019-03-26T16:59:16.694Z,12.10
2019-03-26T17:01:46.982Z,11.90
2019-03-26T17:04:16.532Z,12.10
2019-03-26T17:06:45.974Z,12.10
2019-03-26T17:09:15.200Z,12.00
2019-03-26T17:11:45.658Z,12.00
2019-03-26T17:14:15.040Z,11.90
2019-03-26T17:16:44.484Z,11.80
2019-03-26T17:19:16.794Z,12.00
2019-03-26T17:21:47.038Z,12.00
2019-03-26T17:24:16.328Z,12.00
2019-03-26T17:26:45.605Z,12.00
2019-03-26T17:29:14.874Z,12.00
2019-03-26T17:31:45.485Z,12.00
2019-03-26T17:34:14.911Z,12.10
2019-03-26T17:36:46.131Z,12.10
2019-03-26T17:39:15.387Z,12.10
2019-03-26T17:41:46.818Z,12.00
2019-03-26T17:44:16.218Z,12.00
2019-03-26T17:46:45.579Z,11.80
2019-03-26T17:49:14.807Z,11.80
2019-03-26T17:51:44.129Z,11.80
2019-03-26T17:54:16.785Z,11.80
2019-03-26T17:56:47.555Z,11.80
2019-03-26T17:59:16.953Z,11.80
2019-03-26T18:01:46.303Z,11.60
2019-03-26T18:04:16.391Z,11.50
2019-03-26T18:06:46.644Z,11.40
2019-03-26T18:09:15.978Z,11.50
2019-03-26T18:11:47.760Z,11.50
2019-03-26T18:14:17.768Z,11.60
2019-03-26T18:16:47.015Z,11.50
2019-03-26T18:19:16.288Z,11.40
2019-03-26T18:21:51.500Z,11.40
2019-03-26T18:24:21.645Z,11.40
2019-03-26T18:26:51.816Z,11.40
2019-03-26T18:29:21.232Z,11.30
2019-03-26T18:31:50.500Z,11.30
2019-03-26T18:34:21.453Z,11.20
2019-03-26T18:36:50.678Z,11.20
2019-03-26T18:39:20.083Z,11.20
2019-03-26T18:41:49.338Z,11.00
2019-03-26T18:44:18.610Z,11.00
2019-03-26T18:46:47.879Z,10.90
2019-03-26T18:49:17.163Z,10.70
2019-03-26T18:51:47.393Z,10.60
2019-03-26T18:54:17.140Z,10.70
2019-03-26T18:56:46.318Z,10.60
2019-03-26T18:59:15.685Z,10.60
2019-03-26T19:01:45.110Z,10.50
2019-03-26T19:04:16.366Z,10.50
2019-03-26T19:06:45.693Z,10.40
2019-03-26T19:09:15.477Z,10.40
2019-03-26T19:11:44.745Z,10.30
2019-03-26T19:14:18.200Z,10.30
2019-03-26T19:16:47.425Z,10.30
2019-03-26T19:19:16.760Z,10.30
2019-03-26T19:21:47.666Z,10.30
2019-03-26T19:24:17.945Z,10.30
2019-03-26T19:26:49.240Z,10.30
2019-03-26T19:29:18.529Z,10.30
2019-03-26T19:31:48.759Z,10.20
2019-03-26T19:34:19.057Z,10.20
2019-03-26T19:36:48.373Z,10.10
2019-03-26T19:39:17.654Z,10.00
2019-03-26T19:41:46.912Z,10.00
2019-03-26T19:44:16.221Z,10.00
2019-03-26T19:46:46.440Z,10.10
2019-03-26T19:49:15.707Z,10.20
2019-03-26T19:51:44.986Z,10.30
2019-03-26T19:54:14.246Z,10.30
2019-03-26T19:56:43.509Z,10.20
2019-03-26T19:59:12.844Z,10.10
2019-03-26T20:01:42.094Z,10.20
2019-03-26T20:04:11.378Z,10.10
2019-03-26T20:06:40.734Z,10.10
2019-03-26T20:09:09.990Z,9.90
2019-03-26T20:11:39.255Z,9.90
2019-03-26T20:14:08.580Z,9.90
2019-03-26T20:16:42.089Z,9.90
2019-03-26T20:19:09.865Z,9.90
2019-03-26T20:21:39.156Z,9.90
2019-03-26T20:24:08.453Z,9.80
2019-03-26T20:26:38.603Z,9.80
2019-03-26T20:29:07.911Z,9.80
2019-03-26T20:31:37.147Z,9.60
2019-03-26T20:34:06.393Z,9.60
2019-03-26T20:36:36.634Z,9.50
2019-03-26T20:39:07.488Z,9.30
2019-03-26T20:41:37.041Z,9.40
2019-03-26T20:44:06.364Z,9.50
2019-03-26T20:46:36.714Z,9.40
2019-03-26T20:49:06.017Z,9.30
2019-03-26T20:51:36.220Z,9.30
2019-03-26T20:54:07.284Z,9.30
2019-03-26T20:56:36.533Z,9.20
2019-03-26T20:59:05.720Z,9.10
2019-03-26T21:01:34.988Z,9.00
2019-03-26T21:04:04.176Z,9.10
2019-03-26T21:06:33.976Z,9.00
2019-03-26T21:09:03.476Z,9.10
2019-03-26T21:11:34.219Z,9.00
2019-03-26T21:14:03.460Z,9.00
2019-03-26T21:16:33.632Z,8.90
2019-03-26T21:19:03.811Z,8.90
2019-03-26T21:21:33.086Z,8.80
2019-03-26T21:24:02.327Z,8.70
2019-03-26T21:26:33.702Z,8.70
2019-03-26T21:29:03.036Z,8.80
2019-03-26T21:31:32.305Z,8.70
2019-03-26T21:34:01.578Z,8.80
2019-03-26T21:36:32.886Z,8.70
2019-03-26T21:39:02.210Z,8.80
2019-03-26T21:41:34.209Z,8.70
2019-03-26T21:44:04.772Z,8.70
2019-03-26T21:46:35.105Z,8.70
2019-03-26T21:49:05.804Z,8.70
2019-03-26T21:51:35.078Z,8.70
2019-03-26T21:54:05.291Z,8.60
2019-03-26T21:56:36.193Z,8.50
2019-03-26T21:59:07.918Z,8.60
2019-03-26T22:01:45.275Z,8.60
2019-03-26T22:04:14.563Z,8.60
2019-03-26T22:06:44.869Z,8.60
2019-03-26T22:09:14.133Z,8.50
2019-03-26T22:11:49.964Z,8.50
2019-03-26T22:14:18.357Z,8.40
2019-03-26T22:16:48.102Z,8.40
2019-03-26T22:19:27.844Z,8.40
2019-03-26T22:21:49.947Z,8.40
2019-03-26T22:24:19.228Z,8.30
2019-03-26T22:26:48.501Z,8.30
2019-03-26T22:29:17.754Z,8.40
2019-03-26T22:31:48.036Z,8.30
2019-03-26T22:34:17.282Z,8.30
2019-03-26T22:36:47.844Z,8.40
2019-03-26T22:39:17.117Z,8.30
2019-03-26T22:41:46.471Z,8.50
2019-03-26T22:44:16.735Z,8.60
2019-03-26T22:46:45.997Z,8.60
2019-03-26T22:49:16.349Z,8.60
2019-03-26T22:51:48.663Z,8.50
2019-03-26T22:54:17.948Z,8.50
2019-03-26T22:56:47.191Z,8.50
2019-03-26T22:59:17.536Z,8.40
2019-03-26T23:01:47.715Z,8.40
2019-03-26T23:04:19.860Z,8.40
2019-03-26T23:06:47.836Z,8.40
2019-03-26T23:09:17.302Z,8.50
2019-03-26T23:11:47.572Z,8.40
2019-03-26T23:14:16.858Z,8.40
2019-03-26T23:16:48.107Z,8.40
2019-03-26T23:19:17.362Z,8.30
2019-03-26T23:21:48.544Z,8.40
2019-03-26T23:24:17.818Z,8.40
2019-03-26T23:26:47.160Z,8.30
2019-03-26T23:29:19.193Z,8.40
2019-03-26T23:31:48.433Z,8.30
2019-03-26T23:34:17.727Z,8.50
2019-03-26T23:36:46.957Z,8.40
2019-03-26T23:39:16.156Z,8.40
2019-03-26T23:41:46.792Z,8.30
2019-03-26T23:44:25.675Z,8.40
2019-03-26T23:46:46.929Z,8.50
2019-03-26T23:49:16.172Z,8.70
2019-03-26T23:51:45.420Z,8.80
2019-03-26T23:54:15.164Z,8.90
2019-03-26T23:56:44.398Z,9.00
2019-03-26T23:59:15.270Z,9.10
